createdAt,value
2023-03-15T00:02:35.364Z,10.82
2023-03-15T00:14:35.438Z,10.84
2023-03-15T00:26:35.441Z,10.82
2023-03-15T00:38:35.348Z,10.81
2023-03-15T00:50:35.349Z,10.83
2023-03-15T01:02:35.376Z,10.81
2023-03-15T01:14:35.423Z,10.80
2023-03-15T01:26:35.425Z,10.81
2023-03-15T01:38:35.343Z,10.81
2023-03-15T01:50:35.374Z,10.79
2023-03-15T02:02:35.364Z,10.81
2023-03-15T02:14:35.332Z,10.80
2023-03-15T02:26:35.327Z,10.80
2023-03-15T02:38:35.332Z,10.79
2023-03-15T02:50:35.392Z,10.78
2023-03-15T03:02:35.359Z,10.79
2023-03-15T03:14:35.337Z,10.78
2023-03-15T03:26:35.331Z,10.78
2023-03-15T03:38:35.329Z,10.78
2023-03-15T03:50:35.417Z,10.77
2023-03-15T04:02:35.391Z,10.76
2023-03-15T04:14:35.335Z,10.75
2023-03-15T04:26:35.359Z,10.74
2023-03-15T04:38:35.332Z,10.74
2023-03-15T04:50:35.349Z,10.74
2023-03-15T05:02:35.349Z,10.73
2023-03-15T05:14:35.392Z,10.75
2023-03-15T05:26:35.338Z,10.74
2023-03-15T05:38:35.329Z,10.73
2023-03-15T05:50:35.356Z,10.71
2023-03-15T06:02:35.335Z,10.73
2023-03-15T06:14:35.383Z,10.70
2023-03-15T06:26:35.470Z,10.70
2023-03-15T06:38:35.385Z,10.71
2023-03-15T06:50:46.503Z,10.71
2023-03-15T07:02:35.389Z,10.70
2023-03-15T07:14:35.336Z,10.68
2023-03-15T07:26:35.336Z,10.68
2023-03-15T07:38:35.372Z,10.69
2023-03-15T07:50:35.390Z,10.69
2023-03-15T08:02:35.345Z,10.69
2023-03-15T08:14:35.348Z,10.68
2023-03-15T08:26:35.415Z,10.68
2023-03-15T08:38:35.390Z,10.68
2023-03-15T08:50:35.370Z,10.66
2023-03-15T09:02:35.397Z,10.67
2023-03-15T09:14:35.388Z,10.67
2023-03-15T09:26:35.359Z,10.67
2023-03-15T09:38:35.490Z,10.67
2023-03-15T09:50:35.376Z,10.71
2023-03-15T10:02:35.347Z,10.73
2023-03-15T10:14:35.341Z,10.75
2023-03-15T10:26:35.358Z,10.87
2023-03-15T10:38:35.343Z,10.93
2023-03-15T10:50:35.359Z,10.85
2023-03-15T11:02:35.357Z,11.13
2023-03-15T11:14:35.327Z,10.99
2023-03-15T11:26:35.395Z,11.28
2023-03-15T11:38:35.347Z,11.42
2023-03-15T11:50:35.350Z,11.53
2023-03-15T12:02:35.418Z,11.53
2023-03-15T12:14:35.416Z,11.61
2023-03-15T12:26:35.438Z,11.92
2023-03-15T12:38:35.340Z,11.88
2023-03-15T12:50:35.463Z,11.96
2023-03-15T13:02:42.598Z,12.17
2023-03-15T13:14:35.326Z,12.18
2023-03-15T13:26:35.349Z,12.50
2023-03-15T13:38:35.471Z,12.71
2023-03-15T13:50:35.331Z,12.81
2023-03-15T14:02:35.401Z,12.92
2023-03-15T14:14:35.336Z,13.00
2023-03-15T14:26:35.366Z,12.88
2023-03-15T14:38:35.443Z,12.87
2023-03-15T14:50:35.536Z,13.15
2023-03-15T15:02:35.396Z,12.88
2023-03-15T15:14:35.601Z,12.90
2023-03-15T15:26:35.402Z,12.92
2023-03-15T15:38:35.331Z,12.85
2023-03-15T15:50:35.434Z,13.06
2023-03-15T16:02:35.375Z,12.90
2023-03-15T16:14:35.447Z,12.03
2023-03-15T16:26:35.369Z,12.55
2023-03-15T16:38:35.441Z,11.96
2023-03-15T16:50:35.349Z,11.88
2023-03-15T17:02:35.347Z,11.86
2023-03-15T17:14:35.384Z,11.88
2023-03-15T17:26:35.446Z,11.87
2023-03-15T17:38:35.566Z,11.81
2023-03-15T17:50:35.446Z,11.81
2023-03-15T18:02:35.629Z,11.81
2023-03-15T18:14:35.338Z,11.76
2023-03-15T18:26:35.852Z,11.75
2023-03-15T18:38:35.501Z,11.73
2023-03-15T18:50:35.486Z,11.75
2023-03-15T19:02:35.414Z,11.73
2023-03-15T19:14:35.783Z,11.71
2023-03-15T19:26:35.349Z,11.71
2023-03-15T19:38:35.474Z,11.66
2023-03-15T19:50:35.355Z,11.69
2023-03-15T20:02:35.344Z,11.67
2023-03-15T20:14:35.358Z,11.66
2023-03-15T20:26:35.476Z,11.65
2023-03-15T20:38:35.467Z,11.60
2023-03-15T20:50:35.375Z,11.58
2023-03-15T21:02:35.350Z,11.60
2023-03-15T21:14:35.352Z,12.13
2023-03-15T21:26:35.473Z,12.12
2023-03-15T21:38:35.324Z,12.11
2023-03-15T21:50:35.372Z,12.10
2023-03-15T22:02:35.337Z,12.09
2023-03-15T22:14:35.360Z,12.07
2023-03-15T22:26:35.419Z,12.06
2023-03-15T22:38:35.330Z,12.05
2023-03-15T22:50:35.333Z,12.04
2023-03-15T23:02:35.334Z,12.03
2023-03-15T23:14:35.394Z,12.02
2023-03-15T23:26:35.453Z,12.01
2023-03-15T23:38:35.474Z,11.99
2023-03-15T23:50:35.411Z,11.98
